Arden, North Carolina
Current Conditions -  °F | °C
As of 9:54 PM on Wednesday 22 Oct 2014 (Local Time) from KAVL Reporting Station
Clear Clear  
Wind Chill: 40°   Ceiling: Unl
Heat Index: 46°   Visibility: 10mi
Dew Point: 36°   Wind: 14mph
Humidity: 68%   Direction: 320°NW
Pressure: 30.16"   Gusts: 28mph
Location:  35.47°N, 82.52°W
Report Text: KAVL 230154Z 32012G24KT 10SM CLR 08/02 A3016 RMK AO2 PK WND 34026/0130 SLP208 T00780022
Loading
Personal Weather Stations






























Interactive Weather Map
Tropical Storm Tracking
New forecast layout! Learn more

10-Day Weather Forecast

Advertisements
Track Severe Weather on mobile